THY2DM LTAI-LTBJ
Flight info
| Callsign | THY2DM |
|---|---|
| Flight time | 0h 45m |
| Altitude | 36000 |
| Route | EVBOL UT489 KAVAK UT283 OKESA |
| Aircraft | A20N/M-SDE2E3FGHIRWXY/LB1 |
Departure
| Time | 2026-05-07 20:41 |
|---|---|
| Airport | Antalya International Airport (LTAI) |
Arrival
| Time | 2026-05-07 21:26 |
|---|---|
| Airport | Adnan Menderes International Airport (LTBJ) |
| Time | Latitude | Longitude | Altitude | Speed | Heading |
|---|---|---|---|---|---|
| 2026-05-07 20:24 | 36.88245 | 30.80158 | 193 ft | 0 kts | 276° |
| 2026-05-07 20:34 | 36.88243 | 30.80172 | 193 ft | 4 kts | 276° |
| 2026-05-07 20:34 | 36.88241 | 30.80206 | 193 ft | 4 kts | 275° |
| 2026-05-07 20:34 | 36.88239 | 30.80239 | 200 ft | 3 kts | 268° |
| 2026-05-07 20:34 | 36.88241 | 30.80258 | 203 ft | 2 kts | 241° |
| 2026-05-07 20:35 | 36.88247 | 30.80269 | 201 ft | 2 kts | 202° |
| 2026-05-07 20:35 | 36.88257 | 30.80273 | 206 ft | 2 kts | 187° |
| 2026-05-07 20:35 | 36.88267 | 30.80275 | 204 ft | 0 kts | 184° |
| 2026-05-07 20:38 | 36.88258 | 30.80274 | 193 ft | 2 kts | 184° |
| 2026-05-07 20:38 | 36.88234 | 30.80272 | 193 ft | 5 kts | 182° |
| 2026-05-07 20:38 | 36.88200 | 30.80286 | 199 ft | 6 kts | 129° |
| 2026-05-07 20:38 | 36.88182 | 30.80342 | 199 ft | 8 kts | 103° |
| 2026-05-07 20:39 | 36.88179 | 30.80423 | 192 ft | 11 kts | 94° |
| 2026-05-07 20:39 | 36.88148 | 30.80508 | 194 ft | 12 kts | 114° |
| 2026-05-07 20:39 | 36.88136 | 30.80622 | 199 ft | 15 kts | 97° |
| 2026-05-07 20:39 | 36.88154 | 30.80729 | 190 ft | 10 kts | 34° |
| 2026-05-07 20:40 | 36.88229 | 30.80739 | 199 ft | 15 kts | 4° |
| 2026-05-07 20:40 | 36.88572 | 30.80788 | 200 ft | 84 kts | 6° |
| 2026-05-07 20:40 | 36.89345 | 30.80892 | 187 ft | 137 kts | 6° |
| 2026-05-07 20:40 | 36.90409 | 30.81035 | 314 ft | 168 kts | 7° |
| 2026-05-07 20:41 | 36.91599 | 30.81293 | 821 ft | 175 kts | 16° |
| 2026-05-07 20:41 | 36.92756 | 30.81805 | 1589 ft | 174 kts | 20° |
| 2026-05-07 20:41 | 36.93875 | 30.82364 | 2196 ft | 181 kts | 21° |
| 2026-05-07 20:41 | 36.95116 | 30.82990 | 2503 ft | 204 kts | 21° |
| 2026-05-07 20:42 | 36.96495 | 30.83686 | 2983 ft | 219 kts | 21° |
| 2026-05-07 20:42 | 36.97863 | 30.84534 | 3790 ft | 223 kts | 40° |
| 2026-05-07 20:42 | 36.98697 | 30.86169 | 4478 ft | 235 kts | 76° |
| 2026-05-07 20:42 | 36.98739 | 30.88319 | 4915 ft | 261 kts | 93° |
| 2026-05-07 20:43 | 36.98557 | 30.90647 | 5620 ft | 273 kts | 95° |
| 2026-05-07 20:43 | 36.98329 | 30.93024 | 6510 ft | 277 kts | 95° |
| 2026-05-07 20:43 | 36.98091 | 30.95425 | 7410 ft | 280 kts | 95° |
| 2026-05-07 20:43 | 36.97859 | 30.97868 | 7843 ft | 283 kts | 94° |
| 2026-05-07 20:44 | 36.97640 | 31.00313 | 7986 ft | 283 kts | 94° |
| 2026-05-07 20:44 | 36.97428 | 31.02758 | 8015 ft | 283 kts | 94° |
| 2026-05-07 20:44 | 36.97092 | 31.05181 | 8019 ft | 285 kts | 109° |
| 2026-05-07 20:44 | 36.96004 | 31.07243 | 8017 ft | 289 kts | 137° |
| 2026-05-07 20:45 | 36.94224 | 31.08422 | 8307 ft | 295 kts | 167° |
| 2026-05-07 20:45 | 36.92169 | 31.08498 | 9170 ft | 298 kts | 185° |
| 2026-05-07 20:45 | 36.90095 | 31.08247 | 10059 ft | 301 kts | 186° |
| 2026-05-07 20:45 | 36.87965 | 31.07953 | 10517 ft | 318 kts | 187° |
| 2026-05-07 20:46 | 36.85685 | 31.07620 | 10738 ft | 341 kts | 187° |
| 2026-05-07 20:46 | 36.83247 | 31.07263 | 10927 ft | 364 kts | 187° |
| 2026-05-07 20:46 | 36.80690 | 31.06895 | 11383 ft | 374 kts | 187° |
| 2026-05-07 20:46 | 36.78087 | 31.06529 | 12042 ft | 378 kts | 187° |
| 2026-05-07 20:47 | 36.75464 | 31.06157 | 12708 ft | 382 kts | 188° |
| 2026-05-07 20:47 | 36.72811 | 31.05777 | 13356 ft | 386 kts | 188° |
| 2026-05-07 20:47 | 36.70129 | 31.05391 | 13985 ft | 390 kts | 188° |
| 2026-05-07 20:47 | 36.67417 | 31.04999 | 14533 ft | 394 kts | 188° |
| 2026-05-07 20:48 | 36.64725 | 31.04330 | 15054 ft | 395 kts | 202° |
| 2026-05-07 20:48 | 36.62338 | 31.02704 | 15568 ft | 392 kts | 221° |
| 2026-05-07 20:48 | 36.60510 | 31.00227 | 16104 ft | 388 kts | 240° |
| 2026-05-07 20:48 | 36.59417 | 30.97187 | 16628 ft | 385 kts | 259° |
| 2026-05-07 20:49 | 36.59145 | 30.93907 | 17193 ft | 381 kts | 276° |
| 2026-05-07 20:49 | 36.59401 | 30.90623 | 17780 ft | 382 kts | 278° |
| 2026-05-07 20:49 | 36.59681 | 30.87322 | 18383 ft | 385 kts | 279° |
| 2026-05-07 20:49 | 36.59963 | 30.83994 | 18899 ft | 388 kts | 278° |
| 2026-05-07 20:50 | 36.60242 | 30.80647 | 19416 ft | 391 kts | 278° |
| 2026-05-07 20:50 | 36.60522 | 30.77270 | 19924 ft | 394 kts | 278° |
| 2026-05-07 20:50 | 36.60802 | 30.73867 | 20423 ft | 397 kts | 278° |
| 2026-05-07 20:50 | 36.61080 | 30.70438 | 20906 ft | 400 kts | 278° |
| 2026-05-07 20:51 | 36.61358 | 30.66981 | 21376 ft | 403 kts | 277° |
| 2026-05-07 20:51 | 36.61638 | 30.63502 | 21830 ft | 406 kts | 277° |
| 2026-05-07 20:51 | 36.61917 | 30.59999 | 22277 ft | 408 kts | 277° |
| 2026-05-07 20:51 | 36.62197 | 30.56464 | 22713 ft | 411 kts | 277° |
| 2026-05-07 20:52 | 36.62478 | 30.52911 | 23149 ft | 414 kts | 277° |
| 2026-05-07 20:52 | 36.62762 | 30.49338 | 23582 ft | 417 kts | 277° |
| 2026-05-07 20:52 | 36.63047 | 30.45735 | 23954 ft | 419 kts | 277° |
| 2026-05-07 20:52 | 36.63335 | 30.42111 | 24300 ft | 422 kts | 277° |
| 2026-05-07 20:53 | 36.63622 | 30.38465 | 24651 ft | 424 kts | 276° |
| 2026-05-07 20:53 | 36.63907 | 30.34803 | 25006 ft | 426 kts | 276° |
| 2026-05-07 20:53 | 36.64201 | 30.31124 | 25367 ft | 428 kts | 278° |
| 2026-05-07 20:53 | 36.64831 | 30.27504 | 25737 ft | 428 kts | 288° |
| 2026-05-07 20:54 | 36.65964 | 30.24075 | 26079 ft | 430 kts | 298° |
| 2026-05-07 20:54 | 36.67572 | 30.20933 | 26442 ft | 432 kts | 308° |
| 2026-05-07 20:54 | 36.69570 | 30.18129 | 26803 ft | 434 kts | 313° |
| 2026-05-07 20:54 | 36.71647 | 30.15385 | 27172 ft | 436 kts | 313° |
| 2026-05-07 20:55 | 36.73729 | 30.12626 | 27530 ft | 438 kts | 313° |
| 2026-05-07 20:55 | 36.75815 | 30.09850 | 27921 ft | 438 kts | 313° |
| 2026-05-07 20:55 | 36.77887 | 30.07078 | 28503 ft | 435 kts | 313° |
| 2026-05-07 20:55 | 36.79943 | 30.04324 | 29090 ft | 433 kts | 313° |
| 2026-05-07 20:56 | 36.81991 | 30.01587 | 29639 ft | 431 kts | 313° |
| 2026-05-07 20:56 | 36.84122 | 29.98971 | 30159 ft | 429 kts | 319° |
| 2026-05-07 20:56 | 36.86387 | 29.96556 | 30620 ft | 427 kts | 319° |
| 2026-05-07 20:56 | 36.88616 | 29.94178 | 31082 ft | 425 kts | 319° |
| 2026-05-07 20:57 | 36.90857 | 29.91781 | 31579 ft | 423 kts | 319° |
| 2026-05-07 20:57 | 36.93085 | 29.89391 | 32053 ft | 421 kts | 319° |
| 2026-05-07 20:57 | 36.95201 | 29.86885 | 32515 ft | 419 kts | 309° |
| 2026-05-07 20:57 | 36.96800 | 29.83845 | 32981 ft | 418 kts | 301° |
| 2026-05-07 20:58 | 36.98233 | 29.80691 | 33513 ft | 415 kts | 301° |
| 2026-05-07 20:58 | 36.99637 | 29.77566 | 34141 ft | 410 kts | 300° |
| 2026-05-07 20:58 | 37.01015 | 29.74472 | 34676 ft | 405 kts | 300° |
| 2026-05-07 20:58 | 37.02376 | 29.71406 | 35196 ft | 400 kts | 301° |
| 2026-05-07 20:59 | 37.03722 | 29.68379 | 35722 ft | 396 kts | 301° |
| 2026-05-07 20:59 | 37.05055 | 29.65385 | 36122 ft | 393 kts | 301° |
| 2026-05-07 20:59 | 37.06382 | 29.62412 | 36217 ft | 392 kts | 301° |
| 2026-05-07 21:00 | 37.09062 | 29.56411 | 36237 ft | 395 kts | 301° |
| 2026-05-07 21:00 | 37.11727 | 29.50399 | 36241 ft | 393 kts | 301° |
| 2026-05-07 21:01 | 37.14370 | 29.44429 | 36243 ft | 391 kts | 302° |
| 2026-05-07 21:01 | 37.17017 | 29.38474 | 36241 ft | 391 kts | 302° |
| 2026-05-07 21:02 | 37.19661 | 29.32515 | 36240 ft | 391 kts | 301° |
| 2026-05-07 21:02 | 37.22289 | 29.26552 | 36244 ft | 391 kts | 301° |
| 2026-05-07 21:03 | 37.24909 | 29.20598 | 36024 ft | 386 kts | 302° |
| 2026-05-07 21:03 | 37.26204 | 29.17648 | 35771 ft | 386 kts | 302° |
| 2026-05-07 21:03 | 37.27503 | 29.14694 | 35520 ft | 387 kts | 301° |
| 2026-05-07 21:03 | 37.28811 | 29.11727 | 35294 ft | 390 kts | 301° |
| 2026-05-07 21:04 | 37.30124 | 29.08742 | 35040 ft | 392 kts | 301° |
| 2026-05-07 21:04 | 37.31447 | 29.05731 | 34792 ft | 394 kts | 301° |
| 2026-05-07 21:04 | 37.32772 | 29.02703 | 34556 ft | 397 kts | 301° |
| 2026-05-07 21:04 | 37.34108 | 28.99652 | 34314 ft | 400 kts | 300° |
| 2026-05-07 21:05 | 37.35455 | 28.96580 | 34052 ft | 402 kts | 300° |
| 2026-05-07 21:05 | 37.36801 | 28.93496 | 33762 ft | 401 kts | 301° |
| 2026-05-07 21:05 | 37.38131 | 28.90435 | 33493 ft | 400 kts | 301° |
| 2026-05-07 21:05 | 37.39469 | 28.87355 | 33216 ft | 401 kts | 301° |
| 2026-05-07 21:06 | 37.40810 | 28.84271 | 32958 ft | 403 kts | 301° |
| 2026-05-07 21:06 | 37.42162 | 28.81162 | 32696 ft | 406 kts | 301° |
| 2026-05-07 21:06 | 37.43527 | 28.78027 | 32451 ft | 411 kts | 300° |
| 2026-05-07 21:06 | 37.44911 | 28.74848 | 32194 ft | 416 kts | 300° |
| 2026-05-07 21:07 | 37.46306 | 28.71634 | 31942 ft | 420 kts | 300° |
| 2026-05-07 21:07 | 37.47711 | 28.68395 | 31690 ft | 423 kts | 300° |
| 2026-05-07 21:07 | 37.49106 | 28.65179 | 31429 ft | 424 kts | 300° |
| 2026-05-07 21:07 | 37.50515 | 28.61925 | 31182 ft | 423 kts | 299° |
| 2026-05-07 21:08 | 37.51925 | 28.58663 | 30936 ft | 424 kts | 299° |
| 2026-05-07 21:08 | 37.53341 | 28.55392 | 30454 ft | 426 kts | 299° |
| 2026-05-07 21:08 | 37.54770 | 28.52082 | 29371 ft | 432 kts | 298° |
| 2026-05-07 21:08 | 37.56203 | 28.48753 | 28367 ft | 434 kts | 298° |
| 2026-05-07 21:09 | 37.57646 | 28.45392 | 27344 ft | 437 kts | 298° |
| 2026-05-07 21:09 | 37.59100 | 28.42009 | 26218 ft | 442 kts | 299° |
| 2026-05-07 21:09 | 37.60573 | 28.38581 | 25137 ft | 447 kts | 299° |
| 2026-05-07 21:09 | 37.62040 | 28.35152 | 24416 ft | 441 kts | 299° |
| 2026-05-07 21:10 | 37.63491 | 28.31757 | 23613 ft | 438 kts | 299° |
| 2026-05-07 21:10 | 37.64934 | 28.28378 | 22773 ft | 434 kts | 299° |
| 2026-05-07 21:10 | 37.66356 | 28.25048 | 22009 ft | 428 kts | 299° |
| 2026-05-07 21:10 | 37.67763 | 28.21761 | 21263 ft | 423 kts | 299° |
| 2026-05-07 21:11 | 37.69152 | 28.18514 | 20524 ft | 418 kts | 299° |
| 2026-05-07 21:11 | 37.70525 | 28.15301 | 19788 ft | 414 kts | 299° |
| 2026-05-07 21:11 | 37.73245 | 28.08928 | 18276 ft | 405 kts | 299° |
| 2026-05-07 21:12 | 37.74569 | 28.05817 | 17542 ft | 399 kts | 299° |
| 2026-05-07 21:12 | 37.75869 | 28.02747 | 16896 ft | 393 kts | 299° |
| 2026-05-07 21:12 | 37.77151 | 27.99720 | 16256 ft | 388 kts | 299° |
| 2026-05-07 21:12 | 37.78404 | 27.96763 | 15667 ft | 384 kts | 299° |
| 2026-05-07 21:13 | 37.79659 | 27.93803 | 15071 ft | 380 kts | 299° |
| 2026-05-07 21:13 | 37.80898 | 27.90872 | 14486 ft | 376 kts | 299° |
| 2026-05-07 21:13 | 37.82123 | 27.87975 | 13883 ft | 372 kts | 299° |
| 2026-05-07 21:13 | 37.83335 | 27.85105 | 13240 ft | 367 kts | 299° |
| 2026-05-07 21:14 | 37.84527 | 27.82271 | 12625 ft | 363 kts | 298° |
| 2026-05-07 21:14 | 37.85703 | 27.79471 | 12007 ft | 359 kts | 298° |
| 2026-05-07 21:14 | 37.86867 | 27.76698 | 11396 ft | 355 kts | 298° |
| 2026-05-07 21:14 | 37.87987 | 27.74038 | 11144 ft | 329 kts | 299° |
| 2026-05-07 21:15 | 37.89025 | 27.71569 | 10902 ft | 307 kts | 298° |
| 2026-05-07 21:15 | 37.89999 | 27.69250 | 10668 ft | 289 kts | 298° |
| 2026-05-07 21:15 | 37.90917 | 27.67061 | 10431 ft | 274 kts | 298° |
| 2026-05-07 21:15 | 37.91792 | 27.64974 | 10197 ft | 263 kts | 298° |
| 2026-05-07 21:16 | 37.92641 | 27.62953 | 9956 ft | 255 kts | 298° |
| 2026-05-07 21:16 | 37.93455 | 27.61012 | 9833 ft | 247 kts | 298° |
| 2026-05-07 21:16 | 37.94260 | 27.59090 | 9705 ft | 247 kts | 298° |
| 2026-05-07 21:16 | 37.95065 | 27.57171 | 9566 ft | 247 kts | 298° |
| 2026-05-07 21:17 | 37.95608 | 27.55874 | 9486 ft | 246 kts | 298° |
| 2026-05-07 21:17 | 37.96674 | 27.53330 | 9314 ft | 246 kts | 298° |
| 2026-05-07 21:17 | 37.97205 | 27.52061 | 9229 ft | 246 kts | 298° |
| 2026-05-07 21:17 | 37.98013 | 27.50128 | 9064 ft | 246 kts | 298° |
| 2026-05-07 21:18 | 37.98826 | 27.48175 | 8528 ft | 254 kts | 298° |
| 2026-05-07 21:18 | 37.99654 | 27.46187 | 7969 ft | 255 kts | 297° |
| 2026-05-07 21:18 | 38.00488 | 27.44191 | 7410 ft | 257 kts | 298° |
| 2026-05-07 21:18 | 38.01331 | 27.42178 | 6849 ft | 260 kts | 298° |
| 2026-05-07 21:19 | 38.02178 | 27.40145 | 6254 ft | 262 kts | 297° |
| 2026-05-07 21:19 | 38.03018 | 27.38125 | 5672 ft | 263 kts | 298° |
| 2026-05-07 21:19 | 38.03882 | 27.36047 | 5084 ft | 263 kts | 298° |
| 2026-05-07 21:19 | 38.04727 | 27.34012 | 4672 ft | 255 kts | 297° |
| 2026-05-07 21:20 | 38.05517 | 27.32100 | 4606 ft | 234 kts | 297° |
| 2026-05-07 21:20 | 38.06236 | 27.30357 | 4555 ft | 220 kts | 297° |
| 2026-05-07 21:20 | 38.06944 | 27.28646 | 4495 ft | 218 kts | 298° |
| 2026-05-07 21:20 | 38.07651 | 27.26943 | 4416 ft | 217 kts | 298° |
| 2026-05-07 21:21 | 38.08337 | 27.25291 | 4323 ft | 205 kts | 298° |
| 2026-05-07 21:21 | 38.08993 | 27.23711 | 4239 ft | 200 kts | 298° |
| 2026-05-07 21:21 | 38.09767 | 27.22270 | 4059 ft | 199 kts | 314° |
| 2026-05-07 21:21 | 38.10897 | 27.21276 | 3748 ft | 197 kts | 336° |
| 2026-05-07 21:22 | 38.12215 | 27.20814 | 3488 ft | 197 kts | 346° |
| 2026-05-07 21:22 | 38.13528 | 27.20418 | 3209 ft | 191 kts | 345° |
| 2026-05-07 21:22 | 38.14802 | 27.20034 | 2971 ft | 187 kts | 345° |
| 2026-05-07 21:22 | 38.16059 | 27.19657 | 2724 ft | 181 kts | 345° |
| 2026-05-07 21:23 | 38.17264 | 27.19296 | 2486 ft | 170 kts | 345° |
| 2026-05-07 21:23 | 38.18356 | 27.18969 | 2273 ft | 157 kts | 345° |
| 2026-05-07 21:23 | 38.19392 | 27.18658 | 2077 ft | 147 kts | 345° |
| 2026-05-07 21:23 | 38.20379 | 27.18361 | 1876 ft | 144 kts | 345° |
| 2026-05-07 21:24 | 38.21344 | 27.18071 | 1686 ft | 142 kts | 345° |
| 2026-05-07 21:24 | 38.22303 | 27.17783 | 1493 ft | 142 kts | 345° |
| 2026-05-07 21:24 | 38.23261 | 27.17495 | 1308 ft | 141 kts | 345° |
| 2026-05-07 21:24 | 38.24230 | 27.17204 | 1125 ft | 141 kts | 346° |
| 2026-05-07 21:25 | 38.25188 | 27.16916 | 936 ft | 142 kts | 346° |
| 2026-05-07 21:25 | 38.26149 | 27.16627 | 745 ft | 143 kts | 346° |
| 2026-05-07 21:25 | 38.27116 | 27.16336 | 569 ft | 143 kts | 346° |
| 2026-05-07 21:25 | 38.28082 | 27.16046 | 390 ft | 141 kts | 345° |
| 2026-05-07 21:26 | 38.28881 | 27.15801 | 392 ft | 95 kts | 347° |
| 2026-05-07 21:26 | 38.29323 | 27.15670 | 394 ft | 36 kts | 346° |
| 2026-05-07 21:26 | 38.29426 | 27.15596 | 394 ft | 7 kts | 269° |
| 2026-05-07 21:26 | 38.29413 | 27.15541 | 396 ft | 7 kts | 256° |
| 2026-05-07 21:27 | 38.29400 | 27.15473 | 397 ft | 8 kts | 256° |
| 2026-05-07 21:27 | 38.29385 | 27.15391 | 398 ft | 11 kts | 257° |
| 2026-05-07 21:27 | 38.29365 | 27.15278 | 396 ft | 15 kts | 257° |
| 2026-05-07 21:27 | 38.29330 | 27.15149 | 390 ft | 15 kts | 226° |
| 2026-05-07 21:28 | 38.29295 | 27.15081 | 395 ft | 8 kts | 261° |
| 2026-05-07 21:28 | 38.29291 | 27.15050 | 389 ft | 3 kts | 258° |
| 2026-05-07 21:28 | 38.29290 | 27.15046 | 390 ft | 0 kts | 258° |